Regionale Übersicht

METAR et TAF

Dimanche 13 juin 2021 à 10h15

Visibilités horizontales observées à différents aéroports. Les observations (METAR) et prévisions aéronautiques (TAF) complètes sont disponibles en cliquant sur l’icône correspondante.

  • Luxemburg (ELLX)

    Taf: TAF ELLX 130500Z 1306/1412 03006KT CAVOK=

    Metar: METAR ELLX 130750Z 06007KT 030V100 CAVOK 15/10 Q1028 NOSIG=

  • Spangdahlem (ETAD)

    Taf: nil

    Metar: METAR ETAD 130756Z AUTO 03005KT 9999 CLR 15/09 A3036 RMK AO2 SLP266 T01490086 $=

  • Metz/Nancy (LFJL)

    Taf: TAF LFJL 130500Z 1306/1406 01005KT CAVOK=

    Metar: METAR LFJL 130800Z AUTO 03006KT 350V100 CAVOK 18/10 Q1027 NOSIG=

  • Saarbrücken/Intl (EDDR)

    Taf: TAF EDDR 130500Z 1306/1406 04005KT CAVOK=

    Metar: METAR EDDR 130750Z 03008KT 350V070 CAVOK 17/10 Q1027 NOSIG=

  • Hahn (EDFH)

    Taf: TAF EDFH 130600Z NIL=

    Metar: METAR EDFH 130750Z 03005KT 340V070 9999 FEW018 13/09 Q1028=

  • Ramstein (ETAR)

    Taf: TAF ETAR 130200Z 1302/1408 VRB06KT 9999 SCT050 QNH3027INS BECMG 1306/1307 02009KT 9999 FEW080 QNH3029INS BECMG 1317/1318 VRB06KT 9999 SKC QNH3023INS TX25/1315Z TN09/1304Z=

    Metar: METAR ETAR 130800Z NIL=

  • Nancy/Ochey (LFSO)

    Taf: TAF LFSO 130200Z NIL=

    Metar: METAR LFSO 130800Z AUTO 02006KT 310V050 CAVOK 19/11 Q1027=

  • Liège Bierset (EBLG)

    Taf: TAF EBLG 130500Z 1306/1412 03006KT 9999 FEW045=

    Metar: METAR EBLG 130750Z VRB03KT 9999 FEW022 15/09 Q1029 NOSIG=

  • Saint-Dizier (LFSI)

    Taf: TAF LFSI 130200Z 1303/1403 02005KT CAVOK=

    Metar: METAR LFSI 130800Z AUTO 06004KT 360V120 CAVOK 20/12 Q1027=

  • Maastricht/Zuid Limburg (EHBK)

    Taf: TAF EHBK 130435Z 1306/1412 03003KT CAVOK=

    Metar: METAR EHBK 130755Z AUTO 16003KT 100V220 9999 BKN024 15/09 Q1028 NOSIG=

  • Köln/Köln-Bonn (EDDK)

    Taf: TAF EDDK 130500Z 1306/1412 VRB03KT CAVOK BECMG 1306/1308 34005KT BECMG 1317/1320 06005KT BECMG 1321/1324 12004KT BECMG 1406/1409 18005KT=

    Metar: METAR EDDK 130750Z VRB02KT 9999 FEW037 18/08 Q1028 NOSIG=

  • Charleroi (EBCI)

    Taf: TAF EBCI 130500Z 1306/1412 03005KT 9999 FEW045=

    Metar: METAR EBCI 130750Z 03004KT 330V120 CAVOK 15/09 Q1029 NOSIG=

  • Wiesbaden (ETOU)

    Taf: TAF ETOU 121200Z 1212/1318 33010G15KT 9999 FEW060 SCT080 BKN160 QNH3010INS BECMG 1217/1218 VRB06KT 9999 FEW040 SCT100 QNH3012INS BECMG 1305/1306 01006KT 9999 BKN030 QNH3018INS BECMG 1311/1312 VRB06KT 9999 FEW030 QNH3030INS TX26/1213Z TN14/1304Z LAST NO AMDS AFT 1212=

    Metar: METAR ETOU 130756Z AUTO 21003KT 9999 FEW031 16/09 A3035 RMK AO2 SLP278 T01560088 $=

  • Karlsruhe/Baden-Baden (EDSB)

    Taf: TAF EDSB 130500Z 1306/1406 03006KT CAVOK=

    Metar: METAR EDSB 130750Z 36010KT CAVOK 18/12 Q1027=

  • Chalons/Vatry (LFOK)

    Taf: TAF LFOK 130500Z 1306/1406 02007KT CAVOK=

    Metar: METAR LFOK 130800Z AUTO 04007KT 010V080 9999 FEW014 18/11 Q1027 NOSIG=

  • Frankfurt/Main (EDDF)

    Taf: TAF EDDF 130600Z NIL=

    Metar: METAR EDDF 130750Z 08006KT 040V120 9999 FEW033 17/09 Q1027 NOSIG=

  • Brüssel (EBBR)

    Taf: TAF EBBR 130500Z 1306/1412 03006KT 9999 FEW045=

    Metar: METAR EBBR 130750Z VRB02KT 9999 FEW030 15/07 Q1029 NOSIG=

  • Düsseldorf (EDDL)

    Taf: TAF EDDL 130500Z 1306/1412 VRB02KT CAVOK BECMG 1306/1308 34005KT BECMG 1317/1320 04005KT BECMG 1400/1403 14005KT BECMG 1408/1410 22005KT=

    Metar: METAR EDDL 130750Z VRB04KT 9999 FEW040 17/07 Q1028 NOSIG=

  • Luxeuil (LFSX)

    Taf: TAF LFSX 130200Z NIL=

    Metar: METAR LFSX 130800Z AUTO VRB02KT CAVOK 22/16 Q1025=

  • Eindhoven (EHEH)

    Taf: TAF EHEH 130501Z 1306/1412 VRB02KT CAVOK BECMG 1406/1408 16005KT=

    Metar: METAR EHEH 130755Z AUTO 33002KT 9999 FEW024 16/09 Q1028 BLU NOSIG=

  • Niederrhein (EDLV)

    Taf: TAF EDLV 130500Z 1306/1406 VRB02KT CAVOK TEMPO 1309/1316 34005KT=

    Metar: METAR EDLV 130750Z VRB03KT CAVOK 17/09 Q1028=

  • Dortmund/Wickede (EDLW)

    Taf: TAF EDLW 130500Z 1306/1406 VRB02KT CAVOK BECMG 1306/1308 34005KT PROB30 TEMPO 1306/1307 BKN012 BECMG 1318/1320 VRB02KT BECMG 1322/1324 16005KT=

    Metar: METAR COR EDLW 130750Z VRB03KT 9999 FEW025 15/07 Q1028=

  • Stuttgart/Echterdingen (EDDS)

    Taf: TAF EDDS 130500Z 1306/1406 34005KT 9999 SCT045=

    Metar: METAR EDDS 130750Z VRB06KT 9999 FEW032 19/11 Q1027 NOSIG=

  • Basel-Mühlhausen (LFSB)

    Taf: TAF LFSB 130500Z 1306/1406 35006KT 9999 FEW050 BECMG 1322/1324 VRB03KT=

    Metar: METAR LFSB 130800Z 34008KT 300V020 9999 FEW030 20/13 Q1026 NOSIG=

  • Lille (LFQQ)

    Taf: TAF LFQQ 130500Z 1306/1412 VRB03KT CAVOK=

    Metar: METAR LFQQ 130800Z AUTO VRB02KT CAVOK 18/10 Q1029 NOSIG=

  • Paris/Charles de Gaulle (LFPG)

    Taf: TAF LFPG 130500Z 1306/1412 06010KT CAVOK TX27/1412Z TN14/1404Z=

    Metar: METAR LFPG 130800Z 06010KT CAVOK 19/10 Q1028 NOSIG=

  • Paderborn/Lippstadt (EDLP)

    Taf: TAF EDLP 130500Z 1306/1406 VRB02KT CAVOK BECMG 1306/1308 30005KT PROB30 TEMPO 1306/1307 BKN012 BECMG 1318/1321 17004KT=

    Metar: METAR EDLP 130750Z 34004KT 270V040 9999 SCT023 13/08 Q1028=

  • Paris/Le Bourget (LFPB)

    Taf: TAF LFPB 130600Z NIL=

    Metar: METAR LFPB 130800Z AUTO 06010KT 020V080 CAVOK 20/10 Q1028 NOSIG=

  • Rotterdam (EHRD)

    Taf: TAF EHRD 130425Z 1306/1412 30005KT CAVOK=

    Metar: METAR EHRD 130755Z AUTO VRB01KT 9999 NCD 17/08 Q1028 NOSIG=

  • Zürich/Kloten (LSZH)

    Taf: TAF LSZH 130600Z NIL=

    Metar: METAR LSZH 130750Z 04007KT 9999 FEW030 20/13 Q1026 NOSIG=

  • Oostende/Intl (EBOS)

    Taf: TAF EBOS 130500Z 1306/1412 15005KT 9999 FEW045 PROB30 1402/1406 3500 BR=

    Metar: METAR EBOS 130750Z 18003KT 130V260 CAVOK 18/10 Q1029 NOSIG=

  • Paris/Orly (LFPO)

    Taf: TAF LFPO 130600Z NIL=

    Metar: METAR LFPO 130800Z 06009KT 020V090 CAVOK 20/11 Q1027 NOSIG=

  • Beauvais (LFOB)

    Taf: TAF LFOB 130500Z 1306/1406 02005KT CAVOK=

    Metar: METAR LFOB 130800Z AUTO 09006KT 050V130 CAVOK 19/13 Q1028 NOSIG=

  • Münster/Intl (EDDG)

    Taf: TAF EDDG 130500Z 1306/1406 30005KT CAVOK BECMG 1317/1320 VRB01KT=

    Metar: METAR EDDG 130750Z 32004KT 270V070 9999 FEW035 16/07 Q1028 NOSIG=

  • Illesheim (ETIK)

    Taf: nil

    Metar: METAR ETIK 130756Z AUTO 29004KT 9999 SCT035 15/06 A3034 RMK AO2 SLP270 T01510061 $=

  • Duebendorf (LSMD)

    Taf: TAF LSMD 130500Z NIL=

    Metar: METAR LSMD 130750Z AUTO 02003KT 300V070 9999NDV NCD 21/15 Q1026 RMK=

  • Villacoublay (LFPV)

    Taf: TAF LFPV 130800Z 1309/1409 05010KT CAVOK TX25/1315Z TN15/1403Z=

    Metar: METAR LFPV 130800Z AUTO 08010KT CAVOK 19/10 Q1028=

  • Payerne (LSMP)

    Taf: TAF LSMP 130525Z 1306/1412 VRB02KT CAVOK BECMG 1306/1309 04010KT=

    Metar: METAR LSMP 130750Z AUTO 05008KT 020V080 9999NDV NCD 21/15 Q1025 RMK=

  • Amsterdam/Schipol (EHAM)

    Taf: TAF EHAM 130424Z 1306/1412 29005KT CAVOK=

    Metar: METAR EHAM 130755Z VRB02KT 9999 FEW022 17/10 Q1028 NOSIG=

  • Emmen (LSME)

    Taf: TAF LSME 130500Z NIL=

    Metar: METAR LSME 130750Z AUTO 03004KT 350V060 9999NDV FEW028 BKN042 21/14 Q1026 RMK=

  • Friedrichshafen (EDNY)

    Taf: TAF EDNY 130500Z 1306/1406 04005KT CAVOK BECMG 1309/1311 25005KT BECMG 1316/1318 04003KT=

    Metar: METAR EDNY 130750Z 03005KT 9999 SCT033 20/13 Q1026=

  • Alpnach (LSMA)

    Taf: TAF LSMA 130500Z NIL=

    Metar: METAR LSMA 130750Z AUTO 08007KT 9999NDV NCD 21/14 Q1025 RMK=

  • Meiringen (LSMM)

    Taf: TAF LSMM 130500Z NIL=

    Metar: METAR LSMM 130750Z AUTO VRB06KT 9999NDV NCD 21/14 Q1025 RMK=

  • Nürnberg (EDDN)

    Taf: TAF EDDN 130500Z 1306/1406 32008KT CAVOK BECMG 1317/1319 VRB02KT=

    Metar: METAR EDDN 130750Z 31008KT 270V350 9999 SCT030 16/08 Q1026 NOSIG=

  • Rouen (LFOP)

    Taf: TAF LFOP 130500Z 1306/1406 07005KT CAVOK=

    Metar: METAR LFOP 130800Z AUTO 11008KT CAVOK 19/13 Q1028 NOSIG=

  • Evreux (LFOE)

    Taf: TAF LFOE 130200Z 1303/1403 03004KT 9999 SCT025 BECMG 1307/1309 09010KT=

    Metar: METAR LFOE 130800Z AUTO 08007KT 050V110 9999 FEW001 19/13 Q1028 NOSIG=

  • Erfurt/Bindersleben (EDDE)

    Taf: TAF EDDE 130500Z 1306/1406 32009KT CAVOK BECMG 1319/1321 23004KT=

    Metar: METAR EDDE 130750Z 32008KT 280V360 9999 SCT030 13/06 Q1027 NOSIG=